Hollywood, Florida
Current Conditions -  °F | °C
As of 10:53 PM on Wednesday 22 Oct 2014 (Local Time) from KFLL Reporting Station
Overcast Overcast  
Wind Chill: 77°   Ceiling: 25000
Heat Index: 79°   Visibility: 10mi
Dew Point: 71°   Wind: 0mph
Humidity: 82%   Direction: NA
Pressure: 29.94"   Gusts: NA
Location:  26.01°N, 80.16°W
Report Text: KFLL 230253Z 00000KT 10SM FEW025 FEW095 SCT110 OVC250 25/22 A2994 RMK AO2 RAE0155 SLP137 P0000 60001 T02500217 51003
Loading
Personal Weather Stations






























Interactive Weather Map
Tropical Storm Tracking
New forecast layout! Learn more

10-Day Weather Forecast

Advertisements
Track Severe Weather on mobile